Walton, New York
Current Conditions -  °F | °C
As of 10:15 PM on Thursday 27 Nov 2014 (Local Time) from KMSV Reporting Station
Clear Clear  
Wind Chill: 17°   Ceiling: Unl
Heat Index: 23°   Visibility: 10mi
Dew Point: 21°   Wind: 5mph
Humidity: 93%   Direction: 280°W
Pressure: 30.01"   Gusts: NA
Location:  42.17°N, 75.13°W
Report Text: KMSV 280315Z AUTO 28004KT 10SM CLR M05/M06 A3001 RMK AO1
Loading
Personal Weather Stations






























Interactive Weather Map New forecast layout! Learn more

10-Day Weather Forecast

Advertisements
Track Severe Weather on mobile